Artesia, NM

5:15 AM MST on February 21, 2018 (GMT -0700)
Artesia Municipal

Weather History for KATS - June, 2014

Change the Weather History Date:

Tuesday, June 17, 2014

  Actual Average Record
Temperature  
Mean Temperature 83 °F -  
Max Temperature 98 °F 94 °F 108 °F (1948)
Min Temperature 68 °F 58 °F 44 °F (1981)
Cooling Degree Days 18    
Growing Degree Days 33 (Base 50)    
Moisture  
Dew Point 47 °F    
Average Humidity 32    
Maximum Humidity 60    
Minimum Humidity 12    
Precipitation  
Precipitation 0.00 in - - ()
Sea Level Pressure  
Sea Level Pressure 29.91 in    
Wind  
Wind Speed 10 mph (SSE)    
Max Wind Speed 21 mph    
Max Gust Speed 37 mph    
Visibility 10 miles    
Events Rain    
Averages and records for this station are not official NWS values.
T = Trace of Precipitation, MM = Missing Value Source: NWS Daily Summary

Daily Weather History Graph

Daily Weather History Graph

Search for Another Location

Airport or City:

Trip Planner

Search our weather history database for the weather conditions in past years. The results will help you decide how hot, cold, wet, or windy it might be!

Date:

Astronomy

Jun. 17, 2014 Rise Set
Actual Time 5:49 AM MDT 8:08 PM MDT
Civil Twilight 5:20 AM MDT 8:36 PM MDT
Nautical Twilight 4:45 AM MDT 9:12 PM MDT
Astronomical Twilight 4:07 AM MDT 9:50 PM MDT
Moon 11:55 PM MDT (6/17) 10:52 AM MDT (6/17)
Length of Visible Light 15h 16m
Length of Day
14h 18m
Waning Gibbous, 73% of the Moon is Illuminated
Jun 17
Waning Gibbous
Jun 19
Last Quarter
Jun 27
New
Jul 5
First Quarter
Jul 12
Full

Hourly Weather History & Observations

Time (MDT) Temp. Heat Index Dew Point Humidity Pressure Visibility Wind Dir Wind Speed Gust Speed Precip Events Conditions
12:15 AM 77.0 °F - 53.6 °F 44% 29.91 in 10.0 mi SSE 13.8 mph - N/A   Clear
12:35 AM 77.0 °F - 53.6 °F 44% 29.91 in 10.0 mi SSE 16.1 mph - N/A   Clear
12:55 AM 75.2 °F - 53.6 °F 47% 29.91 in 10.0 mi SSE 12.7 mph - N/A   Clear
1:15 AM 75.2 °F - 53.6 °F 47% 29.90 in 10.0 mi SSE 13.8 mph - N/A   Clear
1:35 AM 75.2 °F - 53.6 °F 47% 29.90 in 10.0 mi SSE 10.4 mph - N/A   Clear
1:55 AM 73.4 °F - 53.6 °F 50% 29.90 in 10.0 mi SSE 9.2 mph - N/A   Clear
2:15 AM 71.6 °F - 51.8 °F 50% 29.91 in 10.0 mi SSE 10.4 mph - N/A   Clear
2:35 AM 71.6 °F - 51.8 °F 50% 29.91 in 10.0 mi SSW 8.1 mph - N/A   Clear
2:55 AM 71.6 °F - 53.6 °F 53% 29.91 in 10.0 mi South 8.1 mph - N/A   Clear
3:15 AM 71.6 °F - 53.6 °F 53% 29.91 in 10.0 mi South 5.8 mph - N/A   Clear
3:35 AM 69.8 °F - 53.6 °F 56% 29.91 in 10.0 mi SE 3.5 mph - N/A   Clear
3:55 AM 71.6 °F - 53.6 °F 53% 29.91 in 10.0 mi South 4.6 mph - N/A   Clear
4:15 AM 68.0 °F - 53.6 °F 60% 29.92 in 10.0 mi SSE 6.9 mph - N/A   Clear
4:35 AM 69.8 °F - 53.6 °F 56% 29.93 in 10.0 mi Calm Calm - N/A   Clear
4:55 AM 71.6 °F - 53.6 °F 53% 29.93 in 10.0 mi Calm Calm - N/A   Clear
5:15 AM 71.6 °F - 53.6 °F 53% 29.94 in 10.0 mi East 4.6 mph - N/A   Clear
5:35 AM 71.6 °F - 51.8 °F 50% 29.94 in 10.0 mi ESE 4.6 mph - N/A   Clear
5:55 AM 71.6 °F - 51.8 °F 50% 29.95 in 10.0 mi ESE 6.9 mph - N/A   Clear
6:35 AM 68.0 °F - 51.8 °F 56% 29.97 in 10.0 mi Calm Calm - N/A   Clear
6:55 AM 68.0 °F - 51.8 °F 56% 29.97 in 10.0 mi South 4.6 mph - N/A   Clear
7:15 AM 73.4 °F - 51.8 °F 47% 29.98 in 10.0 mi SSE 5.8 mph - N/A   Clear
7:35 AM 75.2 °F - 51.8 °F 44% 29.98 in 10.0 mi South 5.8 mph - N/A   Clear
7:55 AM 77.0 °F - 51.8 °F 41% 29.99 in 10.0 mi South 5.8 mph - N/A   Clear
8:15 AM 77.0 °F - 51.8 °F 41% 29.99 in 10.0 mi South 4.6 mph - N/A   Clear
8:35 AM 78.8 °F - 51.8 °F 39% 29.99 in 10.0 mi SSE 5.8 mph - N/A   Clear
8:55 AM 82.4 °F - 50.0 °F 32% 29.99 in 10.0 mi South 4.6 mph - N/A   Clear
9:15 AM 82.4 °F - 50.0 °F 32% 29.99 in 10.0 mi SSE 3.5 mph - N/A   Clear
9:35 AM 84.2 °F - 50.0 °F 30% 29.98 in 10.0 mi SE 4.6 mph - N/A   Clear
9:55 AM 87.8 °F - 48.2 °F 25% 29.97 in 10.0 mi SE 4.6 mph - N/A   Clear
10:20 AM 89.6 °F - 50.0 °F 26% 29.97 in 10.0 mi SE 9.2 mph - N/A   Clear
10:35 AM 89.6 °F - 46.4 °F 22% 29.96 in 10.0 mi SE 8.1 mph - N/A   Clear
11:15 AM 91.4 °F - 44.6 °F 20% 29.96 in 10.0 mi ENE 5.8 mph - N/A   Clear
11:35 AM 93.2 °F - 44.6 °F 19% 29.95 in 10.0 mi SE 6.9 mph - N/A   Clear
12:15 PM 95.0 °F - 41.0 °F 15% 29.93 in 10.0 mi SE 11.5 mph 18.4 mph N/A   Clear
12:35 PM 95.0 °F - 41.0 °F 15% 29.93 in 10.0 mi NNE 4.6 mph - N/A   Clear
12:55 PM 96.8 °F - 37.4 °F 13% 29.92 in 10.0 mi SSW 15.0 mph 18.4 mph N/A   Clear
1:15 PM 98.6 °F - 39.2 °F 13% 29.91 in 10.0 mi SSW 9.2 mph - N/A   Clear
1:35 PM 98.6 °F - 39.2 °F 13% 29.90 in 10.0 mi SSE 9.2 mph 24.2 mph N/A   Clear
1:55 PM 98.6 °F - 39.2 °F 13% 29.90 in 10.0 mi SSW 18.4 mph 25.3 mph N/A   Clear
2:15 PM 98.6 °F - 39.2 °F 13% 29.89 in 10.0 mi South 6.9 mph 18.4 mph N/A   Clear
2:35 PM 98.6 °F - 39.2 °F 13% 29.89 in 10.0 mi SSW 19.6 mph 28.8 mph N/A   Clear
2:55 PM 98.6 °F - 37.4 °F 12% 29.88 in 10.0 mi SSW 13.8 mph 27.6 mph N/A   Clear
3:15 PM 98.6 °F - 37.4 °F 12% 29.88 in 10.0 mi SSW 17.3 mph 24.2 mph N/A   Clear
3:35 PM 98.6 °F - 37.4 °F 12% 29.87 in 10.0 mi SSW 18.4 mph 26.5 mph N/A   Clear
3:55 PM 98.6 °F - 37.4 °F 12% 29.86 in 10.0 mi South 20.7 mph 25.3 mph N/A   Clear
4:15 PM 98.6 °F - 37.4 °F 12% 29.86 in 10.0 mi SW 19.6 mph 26.5 mph N/A   Clear
4:55 PM 93.2 °F - 41.0 °F 16% 29.86 in 9.0 mi SSE 17.3 mph 26.5 mph N/A Rain Light Rain
5:15 PM 91.4 °F - 44.6 °F 20% 29.86 in 10.0 mi South 6.9 mph - N/A   Partly Cloudy
5:35 PM 93.2 °F - 48.2 °F 21% 29.86 in 7.0 mi SW 17.3 mph 36.8 mph N/A Rain Light Rain
5:55 PM 91.4 °F - 46.4 °F 21% 29.84 in 10.0 mi South 4.6 mph - N/A   Clear
6:15 PM 91.4 °F - 44.6 °F 20% 29.84 in 10.0 mi South 10.4 mph - N/A   Clear
6:35 PM 95.0 °F - 41.0 °F 15% 29.84 in 10.0 mi South 15.0 mph 21.9 mph N/A   Clear
6:55 PM 93.2 °F - 41.0 °F 16% 29.84 in 10.0 mi South 15.0 mph 18.4 mph N/A   Clear
7:15 PM 93.2 °F - 41.0 °F 16% 29.84 in 10.0 mi South 11.5 mph - N/A   Clear
7:35 PM 91.4 °F - 41.0 °F 17% 29.84 in 10.0 mi South 10.4 mph - N/A   Clear
7:55 PM 89.6 °F - 42.8 °F 20% 29.84 in 10.0 mi South 9.2 mph - N/A   Clear
8:15 PM 86.0 °F - 41.0 °F 20% 29.84 in 10.0 mi SSW 10.4 mph - N/A   Clear
8:35 PM 84.2 °F - 42.8 °F 23% 29.85 in 10.0 mi SW 10.4 mph - N/A   Clear
8:55 PM 82.4 °F - 41.0 °F 23% 29.85 in 10.0 mi SSW 9.2 mph - N/A   Clear
9:15 PM 82.4 °F - 41.0 °F 23% 29.86 in 10.0 mi South 10.4 mph - N/A   Clear
9:35 PM 82.4 °F - 48.2 °F 30% 29.88 in 10.0 mi SSE 18.4 mph 24.2 mph N/A   Clear
9:55 PM 82.4 °F - 50.0 °F 32% 29.89 in 10.0 mi SE 15.0 mph - N/A   Clear
10:15 PM 82.4 °F - 50.0 °F 32% 29.90 in 10.0 mi SSE 16.1 mph - N/A   Clear
10:35 PM 82.4 °F - 50.0 °F 32% 29.90 in 10.0 mi SE 16.1 mph - N/A   Clear
10:55 PM 80.6 °F - 51.8 °F 37% 29.91 in 10.0 mi SE 19.6 mph 25.3 mph N/A   Clear
11:15 PM 80.6 °F 80.8 °F 57.2 °F 45% 29.94 in 10.0 mi SSE 20.7 mph 26.5 mph N/A   Clear
11:35 PM 78.8 °F - 60.8 °F 54% 29.93 in 10.0 mi South 15.0 mph 24.2 mph N/A   Partly Cloudy